Time;durP1;ratioP1;P1;durP2;ratioP2;P2;SDS_P1;SDS_P2;PMS_P1;PMS_P2;Temp;Humidity;BMP_temperature;BMP_pressure;BME280_temperature;BME280_humidity;BME280_pressure;Samples;Min_cycle;Max_cycle;Signal;HPM_P1;HPM_P2
2023/07/02 00:00:11;;;;;;;;;;;;;;;20.09;57.28;100088.75;107637;1251;108627;-67
2023/07/02 00:03:01;;;;;;;;;;;;;;;20.06;57.35;100091.91;107629;1251;97787;-67
2023/07/02 00:05:30;;;;;;;;;;;;;;;20.05;57.01;100090.17;107713;1251;97831;-67
2023/07/02 00:07:58;;;;;;;;;;;;;;;20.02;57.27;100087.02;107630;1254;112320;-67
2023/07/02 00:10:26;;;;;;;;;;;;;;;19.96;57.50;100088.50;107681;1254;109829;-68
2023/07/02 00:12:54;;;;;;;;;;;;;;;19.93;57.59;100085.24;107637;1251;107859;-67
2023/07/02 00:15:23;;;;;;;;;;;;;;;19.90;57.58;100085.75;107634;1251;98506;-65
2023/07/02 00:17:51;;;;;;;;;;;;;;;19.88;57.54;100080.42;107672;1253;97828;-68
2023/07/02 00:20:19;;;;;;;;;;;;;;;19.86;57.75;100083.04;107641;1251;112146;-67
2023/07/02 00:22:49;;;;;;;;;;;;;;;19.84;57.48;100087.48;107635;1251;108836;-68
2023/07/02 00:25:17;;;;;;;;;;;;;;;19.82;57.97;100082.84;107509;1251;108663;-65
2023/07/02 00:27:45;;;;;;;;;;;;;;;19.77;58.20;100081.92;107524;1251;97902;-67
2023/07/02 00:30:14;;;;;;;;;;;;;;;19.75;58.69;100080.55;107523;1251;97815;-68
2023/07/02 00:32:42;;;;;;;;;;;;;;;19.71;59.01;100076.26;107660;1251;111842;-67
2023/07/02 00:35:11;;;;;;;;;;;;;;;19.64;58.83;100081.38;107590;1251;109416;-67
2023/07/02 00:37:39;;;;;;;;;;;;;;;19.60;58.97;100078.44;107496;1251;108190;-67
2023/07/02 00:40:08;;;;;;;;;;;;;;;19.60;58.62;100079.96;107640;1257;97848;-66
2023/07/02 00:42:36;;;;;;;;;;;;;;;19.58;58.90;100077.65;107650;1254;97919;-66
2023/07/02 00:45:06;;;;;;;;;;;;;;;19.54;59.22;100082.27;107536;1251;111866;-65
2023/07/02 00:47:35;;;;;;;;;;;;;;;19.53;59.17;100079.30;107503;1254;110120;-66
2023/07/02 00:50:04;;;;;;;;;;;;;;;19.51;58.92;100076.16;107649;1253;108472;-67
2023/07/02 00:52:33;;;;;;;;;;;;;;;19.50;59.07;100075.02;107660;1253;98146;-67
2023/07/02 00:55:01;;;;;;;;;;;;;;;19.48;59.20;100076.05;107622;1254;97870;-66
2023/07/02 00:57:30;;;;;;;;;;;;;;;19.48;59.12;100074.49;107459;1254;112013;-66
2023/07/02 01:00:00;;;;;;;;;;;;;;;19.47;58.96;100073.52;107547;1251;109981;-66
2023/07/02 01:02:29;;;;;;;;;;;;;;;19.45;58.82;100075.59;107532;1251;108638;-67
2023/07/02 01:04:59;;;;;;;;;;;;;;;19.44;59.21;100075.52;107472;1254;97870;-66
2023/07/02 01:07:29;;;;;;;;;;;;;;;19.44;59.30;100073.19;107653;1251;97770;-69
2023/07/02 01:09:57;;;;;;;;;;;;;;;19.43;59.48;100075.29;107474;1251;112032;-67
2023/07/02 01:12:27;;;;;;;;;;;;;;;19.42;59.30;100080.40;107541;1250;109510;-66
2023/07/02 01:14:58;;;;;;;;;;;;;;;19.39;59.25;100082.93;107493;1251;107938;-65
2023/07/02 01:17:27;;;;;;;;;;;;;;;19.36;58.95;100082.35;107509;1251;97927;-67
2023/07/02 01:19:58;;;;;;;;;;;;;;;19.33;59.08;100080.12;107659;1251;98363;-65
2023/07/02 01:22:28;;;;;;;;;;;;;;;19.28;59.42;100077.73;107547;1254;110781;-66
2023/07/02 01:24:57;;;;;;;;;;;;;;;19.22;59.39;100075.60;107671;1251;110077;-67
2023/07/02 01:27:28;;;;;;;;;;;;;;;19.13;60.04;100081.35;107510;1251;108456;-68
2023/07/02 01:29:57;;;;;;;;;;;;;;;19.05;60.44;100078.41;107610;1256;97905;-67
2023/07/02 01:32:25;;;;;;;;;;;;;;;19.03;61.43;100075.80;107684;1253;97846;-67
2023/07/02 01:34:53;;;;;;;;;;;;;;;18.97;61.81;100072.92;107606;1253;111439;-66
2023/07/02 01:37:22;;;;;;;;;;;;;;;18.92;61.49;100068.61;107605;1254;108883;-68
2023/07/02 01:39:51;;;;;;;;;;;;;;;18.89;61.26;100070.02;107640;1255;108437;-68
2023/07/02 01:42:19;;;;;;;;;;;;;;;18.90;61.26;100072.30;107643;1253;97809;-65
2023/07/02 01:44:49;;;;;;;;;;;;;;;18.91;61.68;100072.45;107629;1252;97723;-66
2023/07/02 01:47:19;;;;;;;;;;;;;;;18.94;61.45;100069.81;107664;1253;111194;-67
2023/07/02 01:49:48;;;;;;;;;;;;;;;18.94;61.45;100070.45;107555;1251;110420;-65
2023/07/02 01:52:17;;;;;;;;;;;;;;;18.94;61.37;100066.00;107604;1256;108338;-65
2023/07/02 01:54:46;;;;;;;;;;;;;;;18.93;61.56;100071.98;107541;1251;97813;-66
2023/07/02 01:57:14;;;;;;;;;;;;;;;18.93;61.58;100070.95;107509;1254;98320;-67
2023/07/02 01:59:42;;;;;;;;;;;;;;;18.94;61.91;100070.11;107609;1251;111795;-67
2023/07/02 02:02:10;;;;;;;;;;;;;;;18.93;61.54;100074.83;107489;1251;109963;-67
2023/07/02 02:04:38;;;;;;;;;;;;;;;18.91;61.50;100074.81;107572;1251;108229;-66
2023/07/02 02:07:07;;;;;;;;;;;;;;;18.90;61.87;100074.64;107458;1251;97835;-69
2023/07/02 02:09:35;;;;;;;;;;;;;;;18.89;61.65;100075.31;107486;1251;97842;-67
2023/07/02 02:12:04;;;;;;;;;;;;;;;18.87;61.64;100083.78;107511;1251;110492;-67
2023/07/02 02:14:33;;;;;;;;;;;;;;;18.85;61.55;100078.79;107486;1251;109087;-67
2023/07/02 02:17:01;;;;;;;;;;;;;;;18.84;61.69;100076.14;107460;1251;107591;-66
2023/07/02 02:19:29;;;;;;;;;;;;;;;18.84;61.39;100073.13;107504;1251;97903;-66
2023/07/02 02:21:59;;;;;;;;;;;;;;;18.84;61.49;100077.70;107453;1254;97825;-65
2023/07/02 02:24:27;;;;;;;;;;;;;;;18.83;61.71;100079.20;107656;1256;111354;-65
2023/07/02 02:26:55;;;;;;;;;;;;;;;18.81;61.95;100080.74;107648;1251;109019;-67
2023/07/02 02:29:24;;;;;;;;;;;;;;;18.81;62.11;100081.20;107584;1254;107446;-67
2023/07/02 02:31:52;;;;;;;;;;;;;;;18.81;62.37;100078.16;107630;1251;97815;-67
2023/07/02 02:34:21;;;;;;;;;;;;;;;18.82;62.04;100079.58;107538;1251;97697;-66
2023/07/02 02:36:49;;;;;;;;;;;;;;;18.82;62.06;100078.41;107490;1250;111802;-66
2023/07/02 02:39:18;;;;;;;;;;;;;;;18.83;62.14;100082.02;107517;1251;109296;-67
2023/07/02 02:41:46;;;;;;;;;;;;;;;18.82;62.40;100079.41;107605;1251;108439;-66
2023/07/02 02:44:16;;;;;;;;;;;;;;;18.81;62.45;100077.98;107536;1254;97860;-66
2023/07/02 02:46:44;;;;;;;;;;;;;;;18.80;62.51;100080.70;107572;1256;97991;-67
2023/07/02 02:49:13;;;;;;;;;;;;;;;18.81;62.75;100081.38;107554;1253;112519;-65
2023/07/02 02:51:42;;;;;;;;;;;;;;;18.82;62.92;100082.60;107542;1254;109359;-67
2023/07/02 02:54:10;;;;;;;;;;;;;;;18.83;62.82;100081.88;107589;1251;107355;-65
2023/07/02 02:56:38;;;;;;;;;;;;;;;18.84;62.98;100082.14;107573;1251;97729;-68
2023/07/02 02:59:06;;;;;;;;;;;;;;;18.87;62.88;100078.74;107613;1253;97826;-66
2023/07/02 03:01:35;;;;;;;;;;;;;;;18.89;62.84;100084.91;107641;1251;112522;-68
2023/07/02 03:04:03;;;;;;;;;;;;;;;18.91;62.89;100084.63;107526;1254;109783;-66
2023/07/02 03:06:32;;;;;;;;;;;;;;;18.94;62.95;100085.92;107564;1256;107957;-66
2023/07/02 03:09:00;;;;;;;;;;;;;;;18.96;63.24;100087.29;107573;1251;97826;-66
2023/07/02 03:11:28;;;;;;;;;;;;;;;19.01;63.60;100091.58;107644;1252;97916;-67
2023/07/02 03:13:56;;;;;;;;;;;;;;;19.06;63.31;100091.08;107614;1254;111862;-67
2023/07/02 03:16:24;;;;;;;;;;;;;;;19.09;63.16;100082.89;107595;1251;109165;-65
2023/07/02 03:18:53;;;;;;;;;;;;;;;19.10;62.97;100084.45;107615;1255;108446;-66
2023/07/02 03:21:21;;;;;;;;;;;;;;;19.12;63.33;100083.70;107642;1254;97902;-64
2023/07/02 03:23:49;;;;;;;;;;;;;;;19.11;63.51;100084.36;107629;1251;97756;-66
2023/07/02 03:26:19;;;;;;;;;;;;;;;19.14;63.73;100084.20;107619;1251;110842;-66
2023/07/02 03:28:48;;;;;;;;;;;;;;;19.18;63.93;100083.66;107584;1251;109361;-66
2023/07/02 03:31:16;;;;;;;;;;;;;;;19.23;63.81;100086.42;107626;1253;107913;-68
2023/07/02 03:33:44;;;;;;;;;;;;;;;19.27;64.05;100081.67;107635;1256;97986;-66
2023/07/02 03:36:13;;;;;;;;;;;;;;;19.33;63.93;100083.23;107555;1253;97707;-66
2023/07/02 03:38:42;;;;;;;;;;;;;;;19.38;63.55;100082.02;107585;1254;112181;-66
2023/07/02 03:41:10;;;;;;;;;;;;;;;19.42;63.99;100082.52;107639;1254;109323;-66
2023/07/02 03:43:38;;;;;;;;;;;;;;;19.47;63.99;100080.73;107625;1252;108235;-66
2023/07/02 03:46:06;;;;;;;;;;;;;;;19.53;64.08;100081.39;107640;1251;98347;-67
2023/07/02 03:48:34;;;;;;;;;;;;;;;19.56;63.65;100079.00;107623;1251;97784;-66
2023/07/02 03:51:03;;;;;;;;;;;;;;;19.59;63.95;100082.23;107653;1251;111083;-66
2023/07/02 03:53:31;;;;;;;;;;;;;;;19.64;63.93;100085.70;107700;1251;109163;-70
2023/07/02 03:55:59;;;;;;;;;;;;;;;19.70;63.91;100087.45;107617;1254;108720;-65
2023/07/02 03:58:28;;;;;;;;;;;;;;;19.76;64.07;100089.20;107621;1253;97837;-66
2023/07/02 04:00:56;;;;;;;;;;;;;;;19.82;64.24;100086.63;107645;1251;97806;-65
2023/07/02 04:03:24;;;;;;;;;;;;;;;19.89;64.10;100088.99;107652;1251;111824;-67
2023/07/02 04:05:52;;;;;;;;;;;;;;;19.97;63.94;100090.27;107663;1251;110046;-65
2023/07/02 04:08:21;;;;;;;;;;;;;;;20.05;63.65;100095.02;107620;1253;108037;-64
2023/07/02 04:10:50;;;;;;;;;;;;;;;20.12;63.71;100096.06;107711;1253;97853;-66
2023/07/02 04:13:18;;;;;;;;;;;;;;;20.17;63.65;100094.23;107718;1251;98236;-67
2023/07/02 04:15:47;;;;;;;;;;;;;;;20.21;63.44;100101.83;107620;1254;111789;-68
2023/07/02 04:18:15;;;;;;;;;;;;;;;20.26;63.39;100095.70;107616;1251;108939;-65
2023/07/02 04:20:43;;;;;;;;;;;;;;;20.29;63.31;100094.31;107643;1252;108350;-66
2023/07/02 04:23:11;;;;;;;;;;;;;;;20.32;62.96;100093.41;107586;1251;98291;-65
2023/07/02 04:25:39;;;;;;;;;;;;;;;20.36;62.65;100088.69;107529;1251;97838;-66
2023/07/02 04:28:28;;;;;;;;;;;;;;;20.40;62.64;100089.96;107521;1250;112043;-66
2023/07/02 04:30:56;;;;;;;;;;;;;;;20.43;62.45;100087.98;107490;1251;109742;-66
2023/07/02 04:33:24;;;;;;;;;;;;;;;20.47;62.55;100087.24;107518;1251;108659;-67
2023/07/02 04:35:52;;;;;;;;;;;;;;;20.49;62.33;100084.06;107452;1250;98342;-67
2023/07/02 04:38:20;;;;;;;;;;;;;;;20.51;62.25;100087.13;107638;1251;97815;-66
2023/07/02 04:40:51;;;;;;;;;;;;;;;20.54;62.17;100087.96;107684;1251;112100;-66
2023/07/02 04:43:20;;;;;;;;;;;;;;;20.56;61.85;100091.05;107687;1251;109787;-67
2023/07/02 04:45:49;;;;;;;;;;;;;;;20.60;61.83;100093.30;107613;1251;107651;-66
2023/07/02 04:48:17;;;;;;;;;;;;;;;20.64;62.07;100095.80;107658;1251;97933;-67
2023/07/02 04:50:46;;;;;;;;;;;;;;;20.68;62.10;100097.23;107612;1254;97947;-68
2023/07/02 04:53:14;;;;;;;;;;;;;;;20.71;62.19;100094.84;107637;1251;112057;-71
2023/07/02 04:55:43;;;;;;;;;;;;;;;20.72;62.40;100092.90;107656;1251;109969;-66
2023/07/02 04:58:11;;;;;;;;;;;;;;;20.73;62.08;100089.08;107643;1251;107640;-67
2023/07/02 05:00:39;;;;;;;;;;;;;;;20.76;62.07;100089.58;107606;1254;97805;-64
2023/07/02 05:03:07;;;;;;;;;;;;;;;20.79;61.81;100091.70;107622;1254;97896;-67
2023/07/02 05:05:35;;;;;;;;;;;;;;;20.81;61.73;100093.37;107620;1254;112211;-66
2023/07/02 05:08:04;;;;;;;;;;;;;;;20.86;61.95;100088.93;107639;1252;109225;-67
2023/07/02 05:10:33;;;;;;;;;;;;;;;20.89;61.71;100088.44;107607;1254;108106;-67
2023/07/02 05:13:01;;;;;;;;;;;;;;;20.93;61.77;100086.17;107599;1253;97815;-67
2023/07/02 05:15:31;;;;;;;;;;;;;;;20.99;61.38;100090.46;107613;1253;97740;-68
2023/07/02 05:18:00;;;;;;;;;;;;;;;21.04;61.38;100089.09;107620;1252;111374;-66
2023/07/02 05:20:28;;;;;;;;;;;;;;;21.09;61.30;100087.45;107684;1253;110037;-67
2023/07/02 05:22:56;;;;;;;;;;;;;;;21.14;61.08;100090.52;107560;1254;107501;-66
2023/07/02 05:25:24;;;;;;;;;;;;;;;21.20;61.31;100091.69;107609;1251;97730;-68
2023/07/02 05:27:53;;;;;;;;;;;;;;;21.25;61.19;100090.60;107560;1250;97851;-70
2023/07/02 05:30:21;;;;;;;;;;;;;;;21.31;60.90;100095.27;107571;1254;112556;-67
2023/07/02 05:32:49;;;;;;;;;;;;;;;21.37;60.75;100096.56;107631;1251;109259;-67
2023/07/02 05:35:17;;;;;;;;;;;;;;;21.42;60.74;100096.63;107565;1254;108947;-68
2023/07/02 05:37:46;;;;;;;;;;;;;;;21.49;60.52;100095.90;107648;1253;97797;-67
2023/07/02 05:40:14;;;;;;;;;;;;;;;21.55;60.49;100092.48;107680;1251;97717;-67
2023/07/02 05:42:45;;;;;;;;;;;;;;;21.62;60.28;100091.46;107605;1251;112903;-66
2023/07/02 05:45:13;;;;;;;;;;;;;;;21.70;60.09;100092.92;107554;1254;108962;-68
2023/07/02 05:47:41;;;;;;;;;;;;;;;21.79;59.96;100091.59;107680;1251;108646;-70
2023/07/02 05:50:10;;;;;;;;;;;;;;;21.87;59.84;100093.14;107523;1254;97833;-66
2023/07/02 05:52:38;;;;;;;;;;;;;;;21.97;59.61;100091.55;107622;1256;97874;-67
2023/07/02 05:55:10;;;;;;;;;;;;;;;22.07;59.40;100092.86;107611;1253;111659;-65
2023/07/02 05:57:38;;;;;;;;;;;;;;;22.16;59.06;100095.32;107654;1251;109581;-68
2023/07/02 06:00:07;;;;;;;;;;;;;;;22.26;58.46;100091.84;107592;1253;108008;-67
2023/07/02 06:02:41;;;;;;;;;;;;;;;22.37;58.48;100092.58;107603;1254;97822;-67
2023/07/02 06:05:09;;;;;;;;;;;;;;;22.46;58.32;100094.00;107611;1251;97861;-67
2023/07/02 06:07:38;;;;;;;;;;;;;;;22.55;57.87;100092.91;107644;1254;110474;-67
2023/07/02 06:10:07;;;;;;;;;;;;;;;22.63;57.72;100090.48;107664;1255;109612;-67
2023/07/02 06:12:35;;;;;;;;;;;;;;;22.72;57.43;100092.91;107619;1255;108429;-67
2023/07/02 06:15:04;;;;;;;;;;;;;;;22.81;56.92;100093.93;107652;1254;97915;-67
2023/07/02 06:17:35;;;;;;;;;;;;;;;22.90;55.40;100097.24;107651;1253;97832;-66
2023/07/02 06:20:13;;;;;;;;;;;;;;;23.07;54.82;100102.65;107639;1254;112096;-67
2023/07/02 06:22:42;;;;;;;;;;;;;;;23.19;54.80;100094.79;107616;1254;109959;-66
2023/07/02 06:25:10;;;;;;;;;;;;;;;23.30;54.33;100099.10;107637;1254;108346;-66
2023/07/02 06:27:38;;;;;;;;;;;;;;;23.42;53.19;100098.59;107585;1254;97925;-67
2023/07/02 06:30:06;;;;;;;;;;;;;;;23.52;52.86;100098.83;107635;1252;97795;-66
2023/07/02 06:32:34;;;;;;;;;;;;;;;23.64;52.21;100100.52;107684;1251;111637;-66
2023/07/02 06:35:03;;;;;;;;;;;;;;;23.78;52.12;100099.80;107673;1251;109702;-68
2023/07/02 06:37:32;;;;;;;;;;;;;;;23.90;52.08;100097.42;107584;1251;107343;-67
2023/07/02 06:40:00;;;;;;;;;;;;;;;24.00;51.98;100097.23;107521;1254;97928;-65
2023/07/02 06:42:29;;;;;;;;;;;;;;;24.10;51.42;100094.52;107622;1256;97724;-67
2023/07/02 06:44:57;;;;;;;;;;;;;;;24.17;51.32;100095.89;107630;1251;111753;-67
2023/07/02 06:47:25;;;;;;;;;;;;;;;24.25;51.37;100089.49;107586;1251;108904;-67
2023/07/02 06:49:53;;;;;;;;;;;;;;;24.32;51.28;100087.65;107523;1251;108390;-64
2023/07/02 06:52:21;;;;;;;;;;;;;;;24.40;50.82;100087.04;107592;1251;97775;-67
2023/07/02 06:54:49;;;;;;;;;;;;;;;24.51;50.38;100085.52;107654;1251;97802;-67
2023/07/02 06:57:18;;;;;;;;;;;;;;;24.60;50.15;100086.34;107615;1254;111939;-66
2023/07/02 06:59:46;;;;;;;;;;;;;;;24.69;49.74;100086.73;107666;1255;107519;-70
2023/07/02 07:02:17;;;;;;;;;;;;;;;24.76;49.98;100085.98;107576;1251;108141;-67
2023/07/02 07:04:45;;;;;;;;;;;;;;;24.85;49.43;100090.05;107624;1251;99386;-67
2023/07/02 07:07:14;;;;;;;;;;;;;;;24.93;49.03;100089.88;107662;1254;97880;-68
2023/07/02 07:09:42;;;;;;;;;;;;;;;25.02;49.17;100085.17;107596;1254;112183;-70
2023/07/02 07:12:10;;;;;;;;;;;;;;;25.09;48.85;100086.44;107636;1254;108921;-68
2023/07/02 07:14:38;;;;;;;;;;;;;;;25.14;48.31;100089.99;107595;1256;108636;-68
2023/07/02 07:17:07;;;;;;;;;;;;;;;25.23;48.35;100082.58;107579;1251;97869;-69
2023/07/02 07:19:36;;;;;;;;;;;;;;;25.30;47.98;100081.52;107627;1251;97851;-70
2023/07/02 07:22:04;;;;;;;;;;;;;;;25.38;47.59;100075.78;107666;1255;112271;-69
2023/07/02 07:24:32;;;;;;;;;;;;;;;25.47;47.84;100074.67;107586;1254;109087;-69
2023/07/02 07:27:00;;;;;;;;;;;;;;;25.57;47.83;100072.50;107617;1254;108216;-68
2023/07/02 07:29:28;;;;;;;;;;;;;;;25.66;47.76;100070.16;107584;1254;97806;-69
2023/07/02 07:31:56;;;;;;;;;;;;;;;25.75;47.29;100070.94;107604;1251;97703;-69
2023/07/02 07:34:25;;;;;;;;;;;;;;;25.83;47.45;100069.12;107617;1254;111243;-71
2023/07/02 07:36:53;;;;;;;;;;;;;;;25.93;47.38;100068.54;107616;1253;109077;-68
2023/07/02 07:39:21;;;;;;;;;;;;;;;26.02;47.24;100067.73;107616;1252;108273;-73
2023/07/02 07:41:49;;;;;;;;;;;;;;;26.15;47.01;100068.71;107607;1254;97807;-66
2023/07/02 07:44:18;;;;;;;;;;;;;;;26.23;46.92;100069.69;107612;1254;97739;-68
2023/07/02 07:46:46;;;;;;;;;;;;;;;26.32;46.65;100074.27;107598;1254;112835;-67
2023/07/02 07:49:14;;;;;;;;;;;;;;;26.40;46.18;100066.30;107558;1251;109844;-68
2023/07/02 07:51:42;;;;;;;;;;;;;;;26.50;45.88;100068.66;107560;1253;108336;-68
2023/07/02 07:54:11;;;;;;;;;;;;;;;26.58;44.41;100065.83;107629;1253;97809;-67
2023/07/02 07:56:39;;;;;;;;;;;;;;;26.70;44.30;100061.37;107614;1252;97889;-66
2023/07/02 07:59:07;;;;;;;;;;;;;;;26.81;43.55;100059.08;107601;1254;111374;-69
2023/07/02 08:01:35;;;;;;;;;;;;;;;26.91;42.85;100061.30;107634;1254;108678;-69
2023/07/02 08:04:04;;;;;;;;;;;;;;;27.00;43.07;100057.63;107093;1251;764940;-67
2023/07/02 08:06:33;;;;;;;;;;;;;;;27.14;43.66;100055.20;107625;1254;97813;-66
2023/07/02 08:09:03;;;;;;;;;;;;;;;27.29;43.84;100052.20;107654;1254;97828;-67
2023/07/02 08:11:31;;;;;;;;;;;;;;;27.43;43.78;100052.11;107605;1251;111501;-67
2023/07/02 08:13:59;;;;;;;;;;;;;;;27.59;43.71;100051.16;107620;1254;111214;-69
2023/07/02 08:16:27;;;;;;;;;;;;;;;27.69;41.72;100053.59;107584;1251;107644;-69
2023/07/02 08:18:56;;;;;;;;;;;;;;;27.77;40.31;100058.50;107588;1251;97835;-68
2023/07/02 08:21:24;;;;;;;;;;;;;;;27.88;40.04;100058.77;107658;1251;97825;-68
2023/07/02 08:23:53;;;;;;;;;;;;;;;28.00;40.03;100060.37;107625;1251;111620;-68
2023/07/02 08:26:22;;;;;;;;;;;;;;;28.12;40.20;100059.27;107612;1253;109037;-68
2023/07/02 08:28:50;;;;;;;;;;;;;;;28.21;39.10;100061.42;107651;1251;108364;-69
2023/07/02 08:31:18;;;;;;;;;;;;;;;28.33;39.07;100058.20;107621;1251;98290;-70
2023/07/02 08:33:46;;;;;;;;;;;;;;;28.40;38.65;100060.41;107648;1254;97819;-70
2023/07/02 08:36:14;;;;;;;;;;;;;;;28.51;38.60;100053.74;107636;1252;111468;-67
2023/07/02 08:38:43;;;;;;;;;;;;;;;28.60;38.29;100058.91;107576;1253;109500;-68
2023/07/02 08:41:11;;;;;;;;;;;;;;;28.69;37.69;100058.26;107612;1253;107592;-68
2023/07/02 08:43:40;;;;;;;;;;;;;;;28.74;36.80;100055.06;107566;1254;97695;-69
2023/07/02 08:46:09;;;;;;;;;;;;;;;28.78;36.49;100060.78;107630;1251;97823;-69
2023/07/02 08:48:38;;;;;;;;;;;;;;;28.96;37.09;100061.61;107614;1251;111011;-69
2023/07/02 08:51:06;;;;;;;;;;;;;;;29.11;36.73;100061.61;107583;1254;110069;-69
2023/07/02 08:53:34;;;;;;;;;;;;;;;29.21;36.23;100059.77;107643;1251;108109;-68
2023/07/02 08:56:03;;;;;;;;;;;;;;;29.28;36.70;100059.45;107575;1254;97915;-65
2023/07/02 08:58:31;;;;;;;;;;;;;;;29.43;36.45;100062.05;107616;1254;97806;-67
2023/07/02 09:01:08;;;;;;;;;;;;;;;29.60;35.98;100059.30;107609;1253;111264;-67
2023/07/02 09:03:38;;;;;;;;;;;;;;;29.76;35.40;100054.48;107637;1251;109855;-66
2023/07/02 09:06:07;;;;;;;;;;;;;;;29.88;35.59;100055.05;107610;1251;108333;-68
2023/07/02 09:08:36;;;;;;;;;;;;;;;30.06;35.74;100053.12;107534;1256;97805;-66
2023/07/02 09:11:11;;;;;;;;;;;;;;;30.23;34.88;100053.64;107605;1253;97841;-68
2023/07/02 09:13:43;;;;;;;;;;;;;;;30.39;33.92;100053.05;107614;1254;112198;-67
2023/07/02 09:16:24;;;;;;;;;;;;;;;30.52;33.42;100054.20;107647;1253;109076;-68
2023/07/02 09:18:56;;;;;;;;;;;;;;;30.61;33.20;100057.99;107622;1254;107682;-67
2023/07/02 09:21:38;;;;;;;;;;;;;;;30.75;33.69;100055.45;107601;1253;97867;-65
2023/07/02 09:24:13;;;;;;;;;;;;;;;30.92;33.35;100049.25;107650;1254;97935;-66
2023/07/02 09:26:42;;;;;;;;;;;;;;;31.18;33.01;100047.83;107610;1254;111454;-68
2023/07/02 09:29:10;;;;;;;;;;;;;;;31.41;32.51;100046.27;107579;1252;109033;-70
2023/07/02 09:31:45;;;;;;;;;;;;;;;31.63;33.13;100044.29;107575;1253;107433;-68
2023/07/02 09:34:34;;;;;;;;;;;;;;;32.00;33.52;100044.88;107575;1252;97829;-68
2023/07/02 09:37:05;;;;;;;;;;;;;;;32.38;32.30;100046.02;107631;1254;97841;-68
2023/07/02 09:39:34;;;;;;;;;;;;;;;32.63;31.18;100043.13;107678;1254;110527;-68
2023/07/02 09:42:05;;;;;;;;;;;;;;;32.80;30.89;100043.56;107640;1251;109262;-69
2023/07/02 09:44:34;;;;;;;;;;;;;;;33.06;30.29;100037.39;107610;1254;107777;-69
2023/07/02 09:47:07;;;;;;;;;;;;;;;33.35;29.36;100042.12;107614;1254;97870;-68
2023/07/02 09:49:36;;;;;;;;;;;;;;;33.50;28.27;100042.29;107543;1253;97716;-67
2023/07/02 09:52:06;;;;;;;;;;;;;;;33.71;27.41;100038.98;107634;1254;112149;-68
2023/07/02 09:54:34;;;;;;;;;;;;;;;33.84;27.70;100039.09;107660;1256;109023;-68
2023/07/02 09:57:03;;;;;;;;;;;;;;;34.13;27.21;100035.55;107626;1252;107956;-68
2023/07/02 09:59:32;;;;;;;;;;;;;;;34.24;26.12;100035.48;107630;1254;97813;-68
2023/07/02 10:02:00;;;;;;;;;;;;;;;34.24;27.11;100030.04;107638;1252;97804;-70
2023/07/02 10:04:39;;;;;;;;;;;;;;;34.43;26.72;100024.23;107609;1254;112204;-67
2023/07/02 10:07:07;;;;;;;;;;;;;;;34.56;27.11;100024.38;107618;1254;108723;-67
2023/07/02 10:09:36;;;;;;;;;;;;;;;34.73;26.63;100029.40;107578;1255;108012;-67
2023/07/02 10:12:16;;;;;;;;;;;;;;;34.70;27.12;100022.86;107585;1254;97906;-67
2023/07/02 10:14:46;;;;;;;;;;;;;;;34.74;26.88;100026.05;107629;1253;97707;-67
2023/07/02 10:17:25;;;;;;;;;;;;;;;34.75;27.39;100024.02;107622;1253;111829;-67
2023/07/02 10:19:54;;;;;;;;;;;;;;;34.84;26.88;100016.71;107630;1253;110033;-67
2023/07/02 10:22:22;;;;;;;;;;;;;;;35.09;27.68;100018.67;107600;1254;107484;-68
2023/07/02 10:25:00;;;;;;;;;;;;;;;35.31;27.32;100015.89;107590;1253;97807;-68
2023/07/02 10:27:39;;;;;;;;;;;;;;;35.48;27.48;100017.47;107597;1254;97813;-71
2023/07/02 10:30:08;;;;;;;;;;;;;;;35.68;27.91;100015.00;107650;1254;110886;-69
2023/07/02 10:32:37;;;;;;;;;;;;;;;36.03;27.88;100011.34;107644;1251;109378;-67
2023/07/02 10:35:13;;;;;;;;;;;;;;;36.39;26.25;100009.42;107616;1251;107939;-67
2023/07/02 10:37:41;;;;;;;;;;;;;;;36.49;25.87;100014.80;107611;1253;97922;-68
2023/07/02 10:40:11;;;;;;;;;;;;;;;36.56;24.85;100018.52;107618;1253;97740;-68
2023/07/02 10:42:45;;;;;;;;;;;;;;;36.85;25.51;100012.70;107630;1254;111912;-67
2023/07/02 10:45:14;;;;;;;;;;;;;;;37.36;24.56;100010.02;107630;1253;109059;-66
2023/07/02 10:47:43;;;;;;;;;;;;;;;37.80;23.86;100008.94;107618;1251;108349;-67
2023/07/02 10:50:15;;;;;;;;;;;;;;;38.08;23.59;100000.58;107625;1251;97815;-67
2023/07/02 10:52:43;;;;;;;;;;;;;;;38.12;23.57;99999.56;107649;1251;97703;-67
2023/07/02 10:55:16;;;;;;;;;;;;;;;38.05;23.07;99995.91;107624;1251;111181;-68
2023/07/02 10:57:44;;;;;;;;;;;;;;;38.04;23.25;99990.73;107585;1251;109346;-65
2023/07/02 11:00:12;;;;;;;;;;;;;;;37.99;22.50;99997.84;107621;1251;107643;-68
2023/07/02 11:02:41;;;;;;;;;;;;;;;37.82;22.10;100001.23;107578;1253;97938;-66
2023/07/02 11:05:12;;;;;;;;;;;;;;;37.55;22.45;100000.16;107633;1254;97734;-68
2023/07/02 11:07:41;;;;;;;;;;;;;;;37.49;22.80;99987.67;107657;1251;112265;-67
2023/07/02 11:10:10;;;;;;;;;;;;;;;37.59;23.00;99986.54;107586;1251;110501;-66
2023/07/02 11:12:38;;;;;;;;;;;;;;;37.76;22.70;99980.89;107577;1251;108472;-66
2023/07/02 11:15:08;;;;;;;;;;;;;;;38.05;22.69;99980.67;107576;1251;97854;-66
2023/07/02 11:17:37;;;;;;;;;;;;;;;38.46;22.91;99974.67;107689;1251;97818;-71
2023/07/02 11:20:08;;;;;;;;;;;;;;;38.75;22.61;99969.77;107599;1251;111321;-68
2023/07/02 11:22:37;;;;;;;;;;;;;;;38.94;21.95;99975.66;107661;1254;109213;-72
2023/07/02 11:25:12;;;;;;;;;;;;;;;39.02;21.79;99974.98;107577;1254;108723;-68
2023/07/02 11:27:41;;;;;;;;;;;;;;;39.42;22.26;99973.77;107628;1252;97830;-70
2023/07/02 11:30:10;;;;;;;;;;;;;;;39.83;21.81;99968.73;107613;1252;97835;-70
2023/07/02 11:32:51;;;;;;;;;;;;;;;40.19;21.58;99963.16;107660;1254;112284;-69
2023/07/02 11:35:20;;;;;;;;;;;;;;;40.50;21.63;99962.50;107624;1254;108960;-70
2023/07/02 11:37:49;;;;;;;;;;;;;;;40.82;21.71;99964.63;107595;1254;108082;-69
2023/07/02 11:40:18;;;;;;;;;;;;;;;41.02;20.92;99957.34;107614;1251;97819;-68
2023/07/02 11:42:46;;;;;;;;;;;;;;;41.14;20.79;99953.86;107698;1251;97919;-70
2023/07/02 11:45:15;;;;;;;;;;;;;;;41.30;20.86;99952.55;107607;1251;111849;-68
2023/07/02 11:47:43;;;;;;;;;;;;;;;41.27;20.36;99949.41;107604;1251;109893;-68
2023/07/02 11:50:12;;;;;;;;;;;;;;;41.00;20.36;99945.59;107578;1251;107803;-69
2023/07/02 11:52:53;;;;;;;;;;;;;;;40.68;20.75;99947.72;107587;1250;97816;-69
2023/07/02 11:55:22;;;;;;;;;;;;;;;40.51;20.37;99948.45;107610;1251;97906;-67
2023/07/02 11:57:50;;;;;;;;;;;;;;;40.51;20.35;99947.02;107543;1251;111515;-68
2023/07/02 12:00:21;;;;;;;;;;;;;;;40.85;20.01;99945.50;107617;1256;109147;-68
2023/07/02 12:02:49;;;;;;;;;;;;;;;41.35;19.59;99944.70;107600;1251;107428;-68
2023/07/02 12:05:18;;;;;;;;;;;;;;;41.92;19.12;99940.52;107637;1251;97803;-67
2023/07/02 12:07:46;;;;;;;;;;;;;;;42.20;19.59;99940.00;107638;1250;97907;-68
2023/07/02 12:10:14;;;;;;;;;;;;;;;42.36;19.11;99935.17;107663;1251;112788;-70
2023/07/02 12:12:43;;;;;;;;;;;;;;;42.34;18.75;99935.95;107579;1255;109995;-68
2023/07/02 12:15:11;;;;;;;;;;;;;;;42.25;19.16;99935.50;107596;1254;108303;-70
2023/07/02 12:17:39;;;;;;;;;;;;;;;42.36;18.39;99938.90;107626;1253;97906;-67
2023/07/02 12:20:08;;;;;;;;;;;;;;;42.49;18.81;99934.45;107686;1254;97710;-68
2023/07/02 12:22:36;;;;;;;;;;;;;;;42.53;18.17;99937.59;107639;1254;111552;-68
2023/07/02 12:25:05;;;;;;;;;;;;;;;42.45;18.52;99938.66;107618;1253;109611;-69
2023/07/02 12:27:33;;;;;;;;;;;;;;;42.67;18.34;99939.88;107655;1253;107550;-68
2023/07/02 12:30:02;;;;;;;;;;;;;;;42.80;17.80;99937.88;107590;1253;97743;-73
2023/07/02 12:32:30;;;;;;;;;;;;;;;42.61;17.82;99940.83;107684;1251;97718;-69